Stolt Island — ZCXG7 — position and weather

sailwx.info

Track history (hours):
 
Tides and Currents Weather Stations Pressure Air Temp Water Temp Dewpoint Dewpoint Depression Visibility Wind Speed Wind Dir Waves Ship Positions

Stolt Island

Last reported at 2018-Jul-23 11:25 UTC. Time now 2018-Jul-23 11:44 UTC.
Position N 29°44' W 095°08'.

Length 183 m; draft 7.8 m.

Type: Ship (hazmat cat B). MMSI: 319963000.

Date/timePositionNaut miles runAvg speedWind from/ knotsBaromVisibWave heightAir tempDewpointWater temp
2018-Jul-23 11:25N 29°44' W 095°08'0 0.0
2018-Jul-23 10:58N 29°44' W 095°08'0 0.1
2018-Jul-23 10:30N 29°44' W 095°08'1 2.2
2018-Jul-23 10:00N 29°45' W 095°06'2 4.8
2018-Jul-23 09:30N 29°45' W 095°04'3 6.6
2018-Jul-23 09:00N 29°42' W 095°01'5 9.1
2018-Jul-23 08:30N 29°39' W 094°58'2 4.3
2018-Jul-23 08:00N 29°37' W 094°59'2 3.5
2018-Jul-23 07:30N 29°37' W 095°01'0 0.0
2018-Jul-23 07:00N 29°37' W 095°01'0 0.0
2018-Jul-23 06:27N 29°37' W 095°01'0 0.0
2018-Jul-23 06:00N 29°37' W 095°01'0 0.0
2018-Jul-23 05:30N 29°37' W 095°01'0 0.0
2018-Jul-23 05:00N 29°37' W 095°01'0 0.0
2018-Jul-23 04:30N 29°37' W 095°01'0 0.0
2018-Jul-23 04:00N 29°37' W 095°01'0 0.0
2018-Jul-23 03:30N 29°37' W 095°01'0 0.0
2018-Jul-23 03:00N 29°37' W 095°01'0 0.0
2018-Jul-23 02:30N 29°37' W 095°01'0 0.0
2018-Jul-23 02:00N 29°37' W 095°01'0 0.0
2018-Jul-23 01:30N 29°37' W 095°01'0 0.0
2018-Jul-23 01:00N 29°37' W 095°01'0 0.0
2018-Jul-23 00:30N 29°37' W 095°01'0 0.0
2018-Jul-23 00:00N 29°37' W 095°01'0 0.0
2018-Jul-22 23:30N 29°37' W 095°01'0 0.0
2018-Jul-22 23:00N 29°37' W 095°01'0 0.0
2018-Jul-22 22:30N 29°37' W 095°01'0 0.0
2018-Jul-22 22:00N 29°37' W 095°01'0 0.0
2018-Jul-22 21:30N 29°37' W 095°01'0 0.0
2018-Jul-22 21:00N 29°37' W 095°01'0 0.0
2018-Jul-22 20:30N 29°37' W 095°01'0 0.0
2018-Jul-22 20:00N 29°37' W 095°01'0 0.0
2018-Jul-22 19:30N 29°37' W 095°01'0 0.0
2018-Jul-22 19:00N 29°37' W 095°01'0 0.0
2018-Jul-22 18:30N 29°37' W 095°01'0 0.0
2018-Jul-22 18:00N 29°37' W 095°01'0 0.0
2018-Jul-22 17:30N 29°37' W 095°01'0 0.0
2018-Jul-22 17:00N 29°37' W 095°01'0 0.0
2018-Jul-22 16:30N 29°37' W 095°01'0 0.0
2018-Jul-22 16:00N 29°37' W 095°01'0 0.0
2018-Jul-22 15:00N 29°37' W 095°01'0 0.0
2018-Jul-22 14:30N 29°37' W 095°01'0 0.0
2018-Jul-22 14:00N 29°37' W 095°01'0 0.0
2018-Jul-22 13:30N 29°37' W 095°01'0 0.0
2018-Jul-22 13:00N 29°37' W 095°01'0 0.0
2018-Jul-22 12:30N 29°37' W 095°01'0 0.0
2018-Jul-22 12:00N 29°37' W 095°01'0 0.0
2018-Jul-22 11:30N 29°37' W 095°01'0 0.0
2018-Jul-22 11:00N 29°37' W 095°01'0 0.0
2018-Jul-22 10:30N 29°37' W 095°01'0 0.0
2018-Jul-22 10:00N 29°37' W 095°01'0 0.0
2018-Jul-22 09:30N 29°37' W 095°01'0 0.0
2018-Jul-22 09:00N 29°37' W 095°01'0 0.0
2018-Jul-22 08:30N 29°37' W 095°01'0 0.0
2018-Jul-22 08:00N 29°37' W 095°01'0 0.0
2018-Jul-22 07:30N 29°37' W 095°01'0 0.0
2018-Jul-22 07:00N 29°37' W 095°01'0 0.0
2018-Jul-22 06:30N 29°37' W 095°01'0 0.0
2018-Jul-22 06:00N 29°37' W 095°01'0 0.0
2018-Jul-22 05:30N 29°37' W 095°01'0 0.0
2018-Jul-22 05:00N 29°37' W 095°01'0 0.0
2018-Jul-22 04:30N 29°37' W 095°01'0 0.0
2018-Jul-22 04:00N 29°37' W 095°01'0 0.0
2018-Jul-22 03:30N 29°37' W 095°01'0 0.0
2018-Jul-22 03:00N 29°37' W 095°01'0 0.0
2018-Jul-22 02:30N 29°37' W 095°01'0 0.0
2018-Jul-22 02:00N 29°37' W 095°01'0 0.0
2018-Jul-22 01:30N 29°37' W 095°01'0 0.0
2018-Jul-22 01:00N 29°37' W 095°01'0 0.0
2018-Jul-22 00:27N 29°37' W 095°01'0 0.0
2018-Jul-22 00:00N 29°37' W 095°01'0 0.0
2018-Jul-21 23:30N 29°37' W 095°01'0 0.0
2018-Jul-21 23:00N 29°37' W 095°01'0 0.0
2018-Jul-21 22:30N 29°37' W 095°01'0 0.0
2018-Jul-21 22:00N 29°37' W 095°01'0 0.0
2018-Jul-21 21:24N 29°37' W 095°01'0 0.0
2018-Jul-21 21:00N 29°37' W 095°01'0 0.0
2018-Jul-21 20:30N 29°37' W 095°01'0 0.0
2018-Jul-21 20:00N 29°37' W 095°01'0 0.0
2018-Jul-21 19:30N 29°37' W 095°01'0 0.0
2018-Jul-21 19:00N 29°37' W 095°01'0 0.0
2018-Jul-21 18:30N 29°37' W 095°01'0 0.0
2018-Jul-21 18:00N 29°37' W 095°01'0 0.0
2018-Jul-21 17:30N 29°37' W 095°01'0 0.7
2018-Jul-21 17:00N 29°37' W 095°01'2 4.3
2018-Jul-21 16:31N 29°37' W 094°59'5 9.5
2018-Jul-21 16:01N 29°33' W 094°55'612.2
2018-Jul-21 15:30N 29°28' W 094°51'612.1
2018-Jul-21 15:01N 29°23' W 094°48'510.7
2018-Jul-21 14:30N 29°21' W 094°43'7 7.3
2018-Jul-21 13:30N 29°15' W 094°37'0 0.6
2018-Jul-21 13:00N 29°15' W 094°37'0 0.0
2018-Jul-21 12:30N 29°15' W 094°37'0 0.0
2018-Jul-21 12:00N 29°15' W 094°37'0 0.0
2018-Jul-21 11:30N 29°15' W 094°37'0 0.1
2018-Jul-21 10:57N 29°15' W 094°37'0 0.1
2018-Jul-21 10:30N 29°15' W 094°37'0 0.0
2018-Jul-21 09:06N 29°15' W 094°37'0 0.1
2018-Jul-21 08:39N 29°15' W 094°37'0 0.1
2018-Jul-21 08:24N 29°15' W 094°37'0 0.0
2018-Jul-21 07:39N 29°15' W 094°37'0 0.1
2018-Jul-21 07:30N 29°15' W 094°37'0 0.0
2018-Jul-21 06:57N 29°15' W 094°37'0 0.0
2018-Jul-21 06:30N 29°15' W 094°37'0 0.0
2018-Jul-21 05:57N 29°15' W 094°37'0 0.0
2018-Jul-21 05:30N 29°15' W 094°37'0 0.0
2018-Jul-21 04:54N 29°15' W 094°37'0 0.0
2018-Jul-21 04:30N 29°15' W 094°37'0 0.0
2018-Jul-21 04:00N 29°15' W 094°37'0 0.0
2018-Jul-21 03:30N 29°15' W 094°37'0 0.0
2018-Jul-21 03:00N 29°15' W 094°37'0 0.0
2018-Jul-21 02:30N 29°15' W 094°37'0 0.0
2018-Jul-21 02:00N 29°15' W 094°37'0 0.0
2018-Jul-21 01:30N 29°15' W 094°37'0 0.0
2018-Jul-21 01:00N 29°15' W 094°37'0 0.0
2018-Jul-21 00:24N 29°15' W 094°37'0 0.0
2018-Jul-21 00:00N 29°15' W 094°37'0 0.0
2018-Jul-20 23:30N 29°15' W 094°37'0 0.0
2018-Jul-20 23:00N 29°15' W 094°37'0 0.0
2018-Jul-20 22:24N 29°15' W 094°37'0 0.0
2018-Jul-20 21:51N 29°15' W 094°37'0 0.0
2018-Jul-20 21:30N 29°15' W 094°37'0 0.0
2018-Jul-20 21:00N 29°15' W 094°37'0 0.0
2018-Jul-20 20:30N 29°15' W 094°37'0 0.0
2018-Jul-20 19:57N 29°15' W 094°37'0 0.0
2018-Jul-20 19:24N 29°15' W 094°37'0 0.0
2018-Jul-20 18:57N 29°15' W 094°37'0 0.0
2018-Jul-20 18:30N 29°15' W 094°37'0 0.1
2018-Jul-20 18:00N 29°15' W 094°37'4 8.1
2018-Jul-20 17:30N 29°19' W 094°39'612.5
2018-Jul-20 17:00N 29°21' W 094°45'510.8
2018-Jul-20 16:30N 29°22' W 094°51'2 4.8
2018-Jul-20 16:00N 29°22' W 094°54'1 1.7
2018-Jul-20 15:25N 29°22' W 094°55'0 0.0
2018-Jul-20 14:52N 29°22' W 094°55'0 0.0
2018-Jul-20 13:43N 29°22' W 094°55'0 0.0
2018-Jul-20 13:28N 29°22' W 094°55'0 0.0
2018-Jul-20 12:58N 29°22' W 094°55'0 0.0
2018-Jul-20 12:28N 29°22' W 094°55'0 0.0
2018-Jul-20 11:52N 29°22' W 094°55'0 0.0
2018-Jul-20 11:25N 29°22' W 094°55'0 0.0
2018-Jul-20 10:58N 29°22' W 094°55'0 0.0
2018-Jul-20 10:28N 29°22' W 094°55'0 0.0
2018-Jul-20 09:25N 29°22' W 094°55'0 0.0
2018-Jul-20 08:58N 29°22' W 094°55'0 0.0
2018-Jul-20 08:19N 29°22' W 094°55'0 0.0
2018-Jul-20 07:55N 29°22' W 094°55'0 0.0
2018-Jul-20 07:16N 29°22' W 094°55'0 0.0
2018-Jul-20 06:52N 29°22' W 094°55'0 0.0
2018-Jul-20 06:25N 29°22' W 094°55'0 0.0
2018-Jul-20 05:52N 29°22' W 094°55'0 0.0
2018-Jul-20 05:28N 29°22' W 094°55'0 0.0
2018-Jul-20 04:55N 29°22' W 094°55'0 0.0
2018-Jul-20 04:28N 29°22' W 094°55'0 0.0
2018-Jul-20 03:58N 29°22' W 094°55'0 0.0
2018-Jul-20 03:28N 29°22' W 094°55'0 0.0
2018-Jul-20 02:58N 29°22' W 094°55'0 0.0
2018-Jul-20 02:28N 29°22' W 094°55'0 0.0
2018-Jul-20 01:52N 29°22' W 094°55'0 0.0
2018-Jul-20 01:22N 29°22' W 094°55'0 0.0
2018-Jul-20 00:55N 29°22' W 094°55'0 0.0
2018-Jul-20 00:25N 29°22' W 094°55'0 0.0
2018-Jul-19 23:58N 29°22' W 094°55'0 0.0
2018-Jul-19 23:19N 29°22' W 094°55'0 0.0
2018-Jul-19 22:58N 29°22' W 094°55'0 0.0
2018-Jul-19 22:28N 29°22' W 094°55'0 0.0
2018-Jul-19 21:58N 29°22' W 094°55'0 0.0
2018-Jul-19 21:28N 29°22' W 094°55'0 0.0
2018-Jul-19 20:55N 29°22' W 094°55'0 0.2
2018-Jul-19 20:30N 29°22' W 094°55'1 2.9
2018-Jul-19 20:01N 29°22' W 094°53'2 4.7
2018-Jul-19 19:30N 29°22' W 094°51'5 9.7
2018-Jul-19 19:00N 29°21' W 094°45'510.8
2018-Jul-19 18:30N 29°19' W 094°39'5 9.7
2018-Jul-19 17:58N 29°15' W 094°35'2 3.4
2018-Jul-19 17:30N 29°15' W 094°37'0 0.0
2018-Jul-19 17:00N 29°15' W 094°37'0 0.0
2018-Jul-19 16:30N 29°15' W 094°37'0 0.0
2018-Jul-19 16:00N 29°15' W 094°37'0 0.0
2018-Jul-19 15:27N 29°15' W 094°37'0 0.0
2018-Jul-19 15:00N 29°15' W 094°37'0 0.0
2018-Jul-19 14:00N 29°15' W 094°37'0 0.0
2018-Jul-19 13:30N 29°15' W 094°37'0 0.1
2018-Jul-19 13:00N 29°15' W 094°37'0 0.0
2018-Jul-19 12:30N 29°15' W 094°37'0 0.0
2018-Jul-19 12:00N 29°15' W 094°37'0 0.0
2018-Jul-19 11:30N 29°15' W 094°37'0 0.0
2018-Jul-19 11:00N 29°15' W 094°37'0 0.0
2018-Jul-19 10:27N 29°15' W 094°37'0 0.0
2018-Jul-19 09:57N 29°15' W 094°37'0 0.0
2018-Jul-19 09:24N 29°15' W 094°37'0 0.0
2018-Jul-19 09:00N 29°15' W 094°37'0 0.0
2018-Jul-19 08:30N 29°15' W 094°37'0 0.0
2018-Jul-19 07:48N 29°15' W 094°37'0 0.0
2018-Jul-19 07:27N 29°15' W 094°37'0 0.0
2018-Jul-19 07:00N 29°15' W 094°37'0 0.0
2018-Jul-19 06:30N 29°15' W 094°37'0 0.1
2018-Jul-19 06:00N 29°15' W 094°37'0 0.2
2018-Jul-19 05:30N 29°14' W 094°37'3 5.9
2018-Jul-19 05:01N 29°17' W 094°37'510.5
2018-Jul-19 04:31N 29°21' W 094°42'510.5
2018-Jul-19 04:01N 29°22' W 094°48'510.9
2018-Jul-19 03:30N 29°27' W 094°51'611.4
2018-Jul-19 03:00N 29°32' W 094°54'611.1
2018-Jul-19 02:30N 29°37' W 094°57'3 6.1
2018-Jul-19 02:00N 29°37' W 095°01'1 1.2
2018-Jul-19 01:29N 29°37' W 095°01'0 0.0
2018-Jul-19 00:59N 29°37' W 095°01'0 0.0
2018-Jul-19 00:29N 29°37' W 095°01'0 0.0
2018-Jul-18 23:59N 29°37' W 095°01'0 0.0
2018-Jul-18 23:29N 29°37' W 095°01'0 0.0
2018-Jul-18 22:59N 29°37' W 095°01'0 0.0
2018-Jul-18 22:29N 29°37' W 095°01'0 0.0
2018-Jul-18 21:59N 29°37' W 095°01'0 0.0
2018-Jul-18 21:29N 29°37' W 095°01'0 0.0
2018-Jul-18 20:59N 29°37' W 095°01'0 0.0
2018-Jul-18 20:29N 29°37' W 095°01'0 0.0
2018-Jul-18 19:59N 29°37' W 095°01'0 0.0
2018-Jul-18 19:29N 29°37' W 095°01'0 0.0
2018-Jul-18 18:59N 29°37' W 095°01'0 0.0
2018-Jul-18 18:29N 29°37' W 095°01'0 0.0
2018-Jul-18 17:59N 29°37' W 095°01'0 0.0
2018-Jul-18 17:29N 29°37' W 095°01'0 0.0
2018-Jul-18 16:59N 29°37' W 095°01'0 0.0
2018-Jul-18 16:29N 29°37' W 095°01'0 0.0
2018-Jul-18 15:59N 29°37' W 095°01'0 0.0
2018-Jul-18 15:29N 29°37' W 095°01'0 0.0
2018-Jul-18 14:59N 29°37' W 095°01'0 0.0
2018-Jul-18 14:26N 29°37' W 095°01'0 0.0
2018-Jul-18 13:59N 29°37' W 095°01'0 0.0
2018-Jul-18 13:29N 29°37' W 095°01'0 0.0
2018-Jul-18 12:59N 29°37' W 095°01'0 0.0
2018-Jul-18 12:29N 29°37' W 095°01'0 0.0
2018-Jul-18 11:59N 29°37' W 095°01'0 0.0
2018-Jul-18 11:29N 29°37' W 095°01'0 0.0
2018-Jul-18 10:29N 29°37' W 095°01'0 0.0
2018-Jul-18 09:59N 29°37' W 095°01'0 0.0
2018-Jul-18 09:29N 29°37' W 095°01'0 0.0
2018-Jul-18 08:59N 29°37' W 095°01'0 0.7
2018-Jul-18 08:30N 29°37' W 095°01'3 5.1
2018-Jul-18 08:00N 29°37' W 094°58'510.6
2018-Jul-18 07:30N 29°33' W 094°54'5 9.5
2018-Jul-18 07:00N 29°29' W 094°51'510.9
2018-Jul-18 06:30N 29°24' W 094°49'5 9.7
2018-Jul-18 06:00N 29°21' W 094°45'611.0
2018-Jul-18 05:30N 29°19' W 094°39'510.4
2018-Jul-18 05:00N 29°16' W 094°34'2 4.7
2018-Jul-18 04:30N 29°14' W 094°35'0 0.6
2018-Jul-18 04:00N 29°14' W 094°35'0 0.0
2018-Jul-18 03:30N 29°14' W 094°35'0 0.0
2018-Jul-18 03:00N 29°14' W 094°35'0 0.0
2018-Jul-18 02:30N 29°14' W 094°35'0 0.0
2018-Jul-18 02:00N 29°14' W 094°35'0 0.0
2018-Jul-18 01:27N 29°14' W 094°35'0 0.0
2018-Jul-18 01:00N 29°14' W 094°35'0 0.0
2018-Jul-18 00:27N 29°14' W 094°35'0 0.0
2018-Jul-18 00:00N 29°14' W 094°35'0 0.0
2018-Jul-17 23:30N 29°14' W 094°35'0 0.0
2018-Jul-17 22:54N 29°14' W 094°35'0 0.0
2018-Jul-17 22:24N 29°14' W 094°35'0 0.0
2018-Jul-17 21:54N 29°14' W 094°35'0 0.1
2018-Jul-17 21:27N 29°14' W 094°35'2 4.1
2018-Jul-17 21:00N 29°16' W 094°36'510.3
2018-Jul-17 20:30N 29°20' W 094°40'713.0
2018-Jul-17 20:00N 29°21' W 094°47'612.7
2018-Jul-17 19:30N 29°27' W 094°50'612.2
2018-Jul-17 19:00N 29°32' W 094°54'611.9
2018-Jul-17 18:30N 29°37' W 094°57'510.7
2018-Jul-17 18:00N 29°42' W 094°60'4 8.3
2018-Jul-17 17:30N 29°45' W 095°04'3 5.7
2018-Jul-17 17:00N 29°44' W 095°07'3 6.8
2018-Jul-17 16:30N 29°45' W 095°11'3 5.7
2018-Jul-17 15:58N 29°43' W 095°14'2 0.5
2018-Jul-17 13:04N 29°44' W 095°16'0 0.0
2018-Jul-17 12:37N 29°44' W 095°16'0 0.0
2018-Jul-17 12:16N 29°44' W 095°16'0 0.0
2018-Jul-17 11:55N 29°44' W 095°16'0 0.0
2018-Jul-17 11:28N 29°44' W 095°16'0 0.0
2018-Jul-17 10:58N 29°44' W 095°16'0 0.0
2018-Jul-17 10:22N 29°44' W 095°16'0 0.0
2018-Jul-17 09:01N 29°44' W 095°16'0 0.0
2018-Jul-17 08:55N 29°44' W 095°16'0 0.0
2018-Jul-17 08:28N 29°44' W 095°16'0 0.0
2018-Jul-17 07:58N 29°44' W 095°16'0 0.0
2018-Jul-17 07:19N 29°44' W 095°16'0 0.0
2018-Jul-17 06:55N 29°44' W 095°16'0 0.0
2018-Jul-17 06:28N 29°44' W 095°16'0 0.0
2018-Jul-17 05:58N 29°44' W 095°16'0 0.0
2018-Jul-17 05:28N 29°44' W 095°16'0 0.0
2018-Jul-17 04:58N 29°44' W 095°16'0 0.0
2018-Jul-17 04:28N 29°44' W 095°16'0 0.0
2018-Jul-16 03:20N 29°44' W 095°16'1 0.1
2018-Jul-15 15:31N 29°44' W 095°16'0 1.4
2018-Jul-15 15:31N 29°44' W 095°16'3 4.9
2018-Jul-15 14:59N 29°44' W 095°13'3 4.7
2018-Jul-15 14:19N 29°45' W 095°10'2 5.3
2018-Jul-15 13:57N 29°44' W 095°08'2 0.1
2018-Jul-14 01:55N 29°45' W 095°06'2 3.8
2018-Jul-14 01:30N 29°46' W 095°05'4 7.5
2018-Jul-14 01:00N 29°43' W 095°01'4 8.4
2018-Jul-14 00:30N 29°40' W 094°59'611.2
2018-Jul-14 00:00N 29°35' W 094°56'611.5
2018-Jul-13 23:30N 29°30' W 094°52'611.8
2018-Jul-13 23:00N 29°25' W 094°49'611.3
2018-Jul-13 22:30N 29°21' W 094°45'612.5
2018-Jul-13 22:00N 29°19' W 094°38'5 5.9
2018-Jul-13 21:13N 29°14' W 094°38'1 2.4
2018-Jul-13 20:59N 29°14' W 094°39'0 0.1
2018-Jul-13 20:26N 29°14' W 094°39'0 0.0
2018-Jul-13 19:59N 29°14' W 094°39'0 0.0
2018-Jul-13 19:29N 29°14' W 094°39'0 0.0
2018-Jul-13 18:56N 29°14' W 094°39'0 0.0
2018-Jul-13 18:29N 29°14' W 094°39'0 0.0
2018-Jul-13 17:59N 29°14' W 094°39'0 0.0
2018-Jul-13 17:29N 29°14' W 094°39'0 0.0
2018-Jul-13 16:56N 29°14' W 094°39'0 0.0
2018-Jul-13 16:29N 29°14' W 094°39'0 0.0
2018-Jul-13 15:59N 29°14' W 094°39'0 0.0
2018-Jul-13 15:29N 29°14' W 094°39'0 0.0
2018-Jul-13 14:59N 29°14' W 094°39'0 0.0
2018-Jul-13 14:29N 29°14' W 094°39'0 0.0
2018-Jul-13 13:26N 29°14' W 094°39'0 0.0
2018-Jul-13 12:59N 29°14' W 094°39'0 0.0
2018-Jul-13 12:29N 29°14' W 094°39'0 0.1
2018-Jul-13 11:59N 29°14' W 094°39'0 0.2
2018-Jul-13 11:29N 29°14' W 094°39'  
Track history (hours):
 
Tides and Currents Weather Stations Pressure Air Temp Water Temp Dewpoint Dewpoint Depression Visibility Wind Speed Wind Dir Waves Ship Positions

Stolt Island

Last reported at 2018-Jul-23 11:25 UTC. Time now 2018-Jul-23 11:44 UTC.
Position N 29°44' W 095°08'.

Length 183 m; draft 7.8 m.

Type: Ship (hazmat cat B). MMSI: 319963000.

Date/timePositionNaut miles runAvg speedWind from/ knotsBaromVisibWave heightAir tempDewpointWater temp
2018-Jul-23 11:25N 29°44' W 095°08'0 0.0
2018-Jul-23 10:58N 29°44' W 095°08'0 0.1
2018-Jul-23 10:30N 29°44' W 095°08'1 2.2
2018-Jul-23 10:00N 29°45' W 095°06'2 4.8
2018-Jul-23 09:30N 29°45' W 095°04'3 6.6
2018-Jul-23 09:00N 29°42' W 095°01'5 9.1
2018-Jul-23 08:30N 29°39' W 094°58'2 4.3
2018-Jul-23 08:00N 29°37' W 094°59'2 3.5
2018-Jul-23 07:30N 29°37' W 095°01'0 0.0
2018-Jul-23 07:00N 29°37' W 095°01'0 0.0
2018-Jul-23 06:27N 29°37' W 095°01'0 0.0
2018-Jul-23 06:00N 29°37' W 095°01'0 0.0
2018-Jul-23 05:30N 29°37' W 095°01'0 0.0
2018-Jul-23 05:00N 29°37' W 095°01'0 0.0
2018-Jul-23 04:30N 29°37' W 095°01'0 0.0
2018-Jul-23 04:00N 29°37' W 095°01'0 0.0
2018-Jul-23 03:30N 29°37' W 095°01'0 0.0
2018-Jul-23 03:00N 29°37' W 095°01'0 0.0
2018-Jul-23 02:30N 29°37' W 095°01'0 0.0
2018-Jul-23 02:00N 29°37' W 095°01'0 0.0
2018-Jul-23 01:30N 29°37' W 095°01'0 0.0
2018-Jul-23 01:00N 29°37' W 095°01'0 0.0
2018-Jul-23 00:30N 29°37' W 095°01'0 0.0
2018-Jul-23 00:00N 29°37' W 095°01'0 0.0
2018-Jul-22 23:30N 29°37' W 095°01'0 0.0
2018-Jul-22 23:00N 29°37' W 095°01'0 0.0
2018-Jul-22 22:30N 29°37' W 095°01'0 0.0
2018-Jul-22 22:00N 29°37' W 095°01'0 0.0
2018-Jul-22 21:30N 29°37' W 095°01'0 0.0
2018-Jul-22 21:00N 29°37' W 095°01'0 0.0
2018-Jul-22 20:30N 29°37' W 095°01'0 0.0
2018-Jul-22 20:00N 29°37' W 095°01'0 0.0
2018-Jul-22 19:30N 29°37' W 095°01'0 0.0
2018-Jul-22 19:00N 29°37' W 095°01'0 0.0
2018-Jul-22 18:30N 29°37' W 095°01'0 0.0
2018-Jul-22 18:00N 29°37' W 095°01'0 0.0
2018-Jul-22 17:30N 29°37' W 095°01'0 0.0
2018-Jul-22 17:00N 29°37' W 095°01'0 0.0
2018-Jul-22 16:30N 29°37' W 095°01'0 0.0
2018-Jul-22 16:00N 29°37' W 095°01'0 0.0
2018-Jul-22 15:00N 29°37' W 095°01'0 0.0
2018-Jul-22 14:30N 29°37' W 095°01'0 0.0
2018-Jul-22 14:00N 29°37' W 095°01'0 0.0
2018-Jul-22 13:30N 29°37' W 095°01'0 0.0
2018-Jul-22 13:00N 29°37' W 095°01'0 0.0
2018-Jul-22 12:30N 29°37' W 095°01'0 0.0
2018-Jul-22 12:00N 29°37' W 095°01'0 0.0
2018-Jul-22 11:30N 29°37' W 095°01'0 0.0
2018-Jul-22 11:00N 29°37' W 095°01'0 0.0
2018-Jul-22 10:30N 29°37' W 095°01'0 0.0
2018-Jul-22 10:00N 29°37' W 095°01'0 0.0
2018-Jul-22 09:30N 29°37' W 095°01'0 0.0
2018-Jul-22 09:00N 29°37' W 095°01'0 0.0
2018-Jul-22 08:30N 29°37' W 095°01'0 0.0
2018-Jul-22 08:00N 29°37' W 095°01'0 0.0
2018-Jul-22 07:30N 29°37' W 095°01'0 0.0
2018-Jul-22 07:00N 29°37' W 095°01'0 0.0
2018-Jul-22 06:30N 29°37' W 095°01'0 0.0
2018-Jul-22 06:00N 29°37' W 095°01'0 0.0
2018-Jul-22 05:30N 29°37' W 095°01'0 0.0
2018-Jul-22 05:00N 29°37' W 095°01'0 0.0
2018-Jul-22 04:30N 29°37' W 095°01'0 0.0
2018-Jul-22 04:00N 29°37' W 095°01'0 0.0
2018-Jul-22 03:30N 29°37' W 095°01'0 0.0
2018-Jul-22 03:00N 29°37' W 095°01'0 0.0
2018-Jul-22 02:30N 29°37' W 095°01'0 0.0
2018-Jul-22 02:00N 29°37' W 095°01'0 0.0
2018-Jul-22 01:30N 29°37' W 095°01'0 0.0
2018-Jul-22 01:00N 29°37' W 095°01'0 0.0
2018-Jul-22 00:27N 29°37' W 095°01'0 0.0
2018-Jul-22 00:00N 29°37' W 095°01'0 0.0
2018-Jul-21 23:30N 29°37' W 095°01'0 0.0
2018-Jul-21 23:00N 29°37' W 095°01'0 0.0
2018-Jul-21 22:30N 29°37' W 095°01'0 0.0
2018-Jul-21 22:00N 29°37' W 095°01'0 0.0
2018-Jul-21 21:24N 29°37' W 095°01'0 0.0
2018-Jul-21 21:00N 29°37' W 095°01'0 0.0
2018-Jul-21 20:30N 29°37' W 095°01'0 0.0
2018-Jul-21 20:00N 29°37' W 095°01'0 0.0
2018-Jul-21 19:30N 29°37' W 095°01'0 0.0
2018-Jul-21 19:00N 29°37' W 095°01'0 0.0
2018-Jul-21 18:30N 29°37' W 095°01'0 0.0
2018-Jul-21 18:00N 29°37' W 095°01'0 0.0
2018-Jul-21 17:30N 29°37' W 095°01'0 0.7
2018-Jul-21 17:00N 29°37' W 095°01'2 4.3
2018-Jul-21 16:31N 29°37' W 094°59'5 9.5
2018-Jul-21 16:01N 29°33' W 094°55'612.2
2018-Jul-21 15:30N 29°28' W 094°51'612.1
2018-Jul-21 15:01N 29°23' W 094°48'510.7
2018-Jul-21 14:30N 29°21' W 094°43'7 7.3
2018-Jul-21 13:30N 29°15' W 094°37'0 0.6
2018-Jul-21 13:00N 29°15' W 094°37'0 0.0
2018-Jul-21 12:30N 29°15' W 094°37'0 0.0
2018-Jul-21 12:00N 29°15' W 094°37'0 0.0
2018-Jul-21 11:30N 29°15' W 094°37'0 0.1
2018-Jul-21 10:57N 29°15' W 094°37'0 0.1
2018-Jul-21 10:30N 29°15' W 094°37'0 0.0
2018-Jul-21 09:06N 29°15' W 094°37'0 0.1
2018-Jul-21 08:39N 29°15' W 094°37'0 0.1
2018-Jul-21 08:24N 29°15' W 094°37'0 0.0
2018-Jul-21 07:39N 29°15' W 094°37'0 0.1
2018-Jul-21 07:30N 29°15' W 094°37'0 0.0
2018-Jul-21 06:57N 29°15' W 094°37'0 0.0
2018-Jul-21 06:30N 29°15' W 094°37'0 0.0
2018-Jul-21 05:57N 29°15' W 094°37'0 0.0
2018-Jul-21 05:30N 29°15' W 094°37'0 0.0
2018-Jul-21 04:54N 29°15' W 094°37'0 0.0
2018-Jul-21 04:30N 29°15' W 094°37'0 0.0
2018-Jul-21 04:00N 29°15' W 094°37'0 0.0
2018-Jul-21 03:30N 29°15' W 094°37'0 0.0
2018-Jul-21 03:00N 29°15' W 094°37'0 0.0
2018-Jul-21 02:30N 29°15' W 094°37'0 0.0
2018-Jul-21 02:00N 29°15' W 094°37'0 0.0
2018-Jul-21 01:30N 29°15' W 094°37'0 0.0
2018-Jul-21 01:00N 29°15' W 094°37'0 0.0
2018-Jul-21 00:24N 29°15' W 094°37'0 0.0
2018-Jul-21 00:00N 29°15' W 094°37'0 0.0
2018-Jul-20 23:30N 29°15' W 094°37'0 0.0
2018-Jul-20 23:00N 29°15' W 094°37'0 0.0
2018-Jul-20 22:24N 29°15' W 094°37'0 0.0
2018-Jul-20 21:51N 29°15' W 094°37'0 0.0
2018-Jul-20 21:30N 29°15' W 094°37'0 0.0
2018-Jul-20 21:00N 29°15' W 094°37'0 0.0
2018-Jul-20 20:30N 29°15' W 094°37'0 0.0
2018-Jul-20 19:57N 29°15' W 094°37'0 0.0
2018-Jul-20 19:24N 29°15' W 094°37'0 0.0
2018-Jul-20 18:57N 29°15' W 094°37'0 0.0
2018-Jul-20 18:30N 29°15' W 094°37'0 0.1
2018-Jul-20 18:00N 29°15' W 094°37'4 8.1
2018-Jul-20 17:30N 29°19' W 094°39'612.5
2018-Jul-20 17:00N 29°21' W 094°45'510.8
2018-Jul-20 16:30N 29°22' W 094°51'2 4.8
2018-Jul-20 16:00N 29°22' W 094°54'1 1.7
2018-Jul-20 15:25N 29°22' W 094°55'0 0.0
2018-Jul-20 14:52N 29°22' W 094°55'0 0.0
2018-Jul-20 13:43N 29°22' W 094°55'0 0.0
2018-Jul-20 13:28N 29°22' W 094°55'0 0.0
2018-Jul-20 12:58N 29°22' W 094°55'0 0.0
2018-Jul-20 12:28N 29°22' W 094°55'0 0.0
2018-Jul-20 11:52N 29°22' W 094°55'0 0.0
2018-Jul-20 11:25N 29°22' W 094°55'0 0.0
2018-Jul-20 10:58N 29°22' W 094°55'0 0.0
2018-Jul-20 10:28N 29°22' W 094°55'0 0.0
2018-Jul-20 09:25N 29°22' W 094°55'0 0.0
2018-Jul-20 08:58N 29°22' W 094°55'0 0.0
2018-Jul-20 08:19N 29°22' W 094°55'0 0.0
2018-Jul-20 07:55N 29°22' W 094°55'0 0.0
2018-Jul-20 07:16N 29°22' W 094°55'0 0.0
2018-Jul-20 06:52N 29°22' W 094°55'0 0.0
2018-Jul-20 06:25N 29°22' W 094°55'0 0.0
2018-Jul-20 05:52N 29°22' W 094°55'0 0.0
2018-Jul-20 05:28N 29°22' W 094°55'0 0.0
2018-Jul-20 04:55N 29°22' W 094°55'0 0.0
2018-Jul-20 04:28N 29°22' W 094°55'0 0.0
2018-Jul-20 03:58N 29°22' W 094°55'0 0.0
2018-Jul-20 03:28N 29°22' W 094°55'0 0.0
2018-Jul-20 02:58N 29°22' W 094°55'0 0.0
2018-Jul-20 02:28N 29°22' W 094°55'0 0.0
2018-Jul-20 01:52N 29°22' W 094°55'0 0.0
2018-Jul-20 01:22N 29°22' W 094°55'0 0.0
2018-Jul-20 00:55N 29°22' W 094°55'0 0.0
2018-Jul-20 00:25N 29°22' W 094°55'0 0.0
2018-Jul-19 23:58N 29°22' W 094°55'0 0.0
2018-Jul-19 23:19N 29°22' W 094°55'0 0.0
2018-Jul-19 22:58N 29°22' W 094°55'0 0.0
2018-Jul-19 22:28N 29°22' W 094°55'0 0.0
2018-Jul-19 21:58N 29°22' W 094°55'0 0.0
2018-Jul-19 21:28N 29°22' W 094°55'0 0.0
2018-Jul-19 20:55N 29°22' W 094°55'0 0.2
2018-Jul-19 20:30N 29°22' W 094°55'1 2.9
2018-Jul-19 20:01N 29°22' W 094°53'2 4.7
2018-Jul-19 19:30N 29°22' W 094°51'5 9.7
2018-Jul-19 19:00N 29°21' W 094°45'510.8
2018-Jul-19 18:30N 29°19' W 094°39'5 9.7
2018-Jul-19 17:58N 29°15' W 094°35'2 3.4
2018-Jul-19 17:30N 29°15' W 094°37'0 0.0
2018-Jul-19 17:00N 29°15' W 094°37'0 0.0
2018-Jul-19 16:30N 29°15' W 094°37'0 0.0
2018-Jul-19 16:00N 29°15' W 094°37'0 0.0
2018-Jul-19 15:27N 29°15' W 094°37'0 0.0
2018-Jul-19 15:00N 29°15' W 094°37'0 0.0
2018-Jul-19 14:00N 29°15' W 094°37'0 0.0
2018-Jul-19 13:30N 29°15' W 094°37'0 0.1
2018-Jul-19 13:00N 29°15' W 094°37'0 0.0
2018-Jul-19 12:30N 29°15' W 094°37'0 0.0
2018-Jul-19 12:00N 29°15' W 094°37'0 0.0
2018-Jul-19 11:30N 29°15' W 094°37'0 0.0
2018-Jul-19 11:00N 29°15' W 094°37'0 0.0
2018-Jul-19 10:27N 29°15' W 094°37'0 0.0
2018-Jul-19 09:57N 29°15' W 094°37'0 0.0
2018-Jul-19 09:24N 29°15' W 094°37'0 0.0
2018-Jul-19 09:00N 29°15' W 094°37'0 0.0
2018-Jul-19 08:30N 29°15' W 094°37'0 0.0
2018-Jul-19 07:48N 29°15' W 094°37'0 0.0
2018-Jul-19 07:27N 29°15' W 094°37'0 0.0
2018-Jul-19 07:00N 29°15' W 094°37'0 0.0
2018-Jul-19 06:30N 29°15' W 094°37'0 0.1
2018-Jul-19 06:00N 29°15' W 094°37'0 0.2
2018-Jul-19 05:30N 29°14' W 094°37'3 5.9
2018-Jul-19 05:01N 29°17' W 094°37'510.5
2018-Jul-19 04:31N 29°21' W 094°42'510.5
2018-Jul-19 04:01N 29°22' W 094°48'510.9
2018-Jul-19 03:30N 29°27' W 094°51'611.4
2018-Jul-19 03:00N 29°32' W 094°54'611.1
2018-Jul-19 02:30N 29°37' W 094°57'3 6.1
2018-Jul-19 02:00N 29°37' W 095°01'1 1.2
2018-Jul-19 01:29N 29°37' W 095°01'0 0.0
2018-Jul-19 00:59N 29°37' W 095°01'0 0.0
2018-Jul-19 00:29N 29°37' W 095°01'0 0.0
2018-Jul-18 23:59N 29°37' W 095°01'0 0.0
2018-Jul-18 23:29N 29°37' W 095°01'0 0.0
2018-Jul-18 22:59N 29°37' W 095°01'0 0.0
2018-Jul-18 22:29N 29°37' W 095°01'0 0.0
2018-Jul-18 21:59N 29°37' W 095°01'0 0.0
2018-Jul-18 21:29N 29°37' W 095°01'0 0.0
2018-Jul-18 20:59N 29°37' W 095°01'0 0.0
2018-Jul-18 20:29N 29°37' W 095°01'0 0.0
2018-Jul-18 19:59N 29°37' W 095°01'0 0.0
2018-Jul-18 19:29N 29°37' W 095°01'0 0.0
2018-Jul-18 18:59N 29°37' W 095°01'0 0.0
2018-Jul-18 18:29N 29°37' W 095°01'0 0.0
2018-Jul-18 17:59N 29°37' W 095°01'0 0.0
2018-Jul-18 17:29N 29°37' W 095°01'0 0.0
2018-Jul-18 16:59N 29°37' W 095°01'0 0.0
2018-Jul-18 16:29N 29°37' W 095°01'0 0.0
2018-Jul-18 15:59N 29°37' W 095°01'0 0.0
2018-Jul-18 15:29N 29°37' W 095°01'0 0.0
2018-Jul-18 14:59N 29°37' W 095°01'0 0.0
2018-Jul-18 14:26N 29°37' W 095°01'0 0.0
2018-Jul-18 13:59N 29°37' W 095°01'0 0.0
2018-Jul-18 13:29N 29°37' W 095°01'0 0.0
2018-Jul-18 12:59N 29°37' W 095°01'0 0.0
2018-Jul-18 12:29N 29°37' W 095°01'0 0.0
2018-Jul-18 11:59N 29°37' W 095°01'0 0.0
2018-Jul-18 11:29N 29°37' W 095°01'0 0.0
2018-Jul-18 10:29N 29°37' W 095°01'0 0.0
2018-Jul-18 09:59N 29°37' W 095°01'0 0.0
2018-Jul-18 09:29N 29°37' W 095°01'0 0.0
2018-Jul-18 08:59N 29°37' W 095°01'0 0.7
2018-Jul-18 08:30N 29°37' W 095°01'3 5.1
2018-Jul-18 08:00N 29°37' W 094°58'510.6
2018-Jul-18 07:30N 29°33' W 094°54'5 9.5
2018-Jul-18 07:00N 29°29' W 094°51'510.9
2018-Jul-18 06:30N 29°24' W 094°49'5 9.7
2018-Jul-18 06:00N 29°21' W 094°45'611.0
2018-Jul-18 05:30N 29°19' W 094°39'510.4
2018-Jul-18 05:00N 29°16' W 094°34'2 4.7
2018-Jul-18 04:30N 29°14' W 094°35'0 0.6
2018-Jul-18 04:00N 29°14' W 094°35'0 0.0
2018-Jul-18 03:30N 29°14' W 094°35'0 0.0
2018-Jul-18 03:00N 29°14' W 094°35'0 0.0
2018-Jul-18 02:30N 29°14' W 094°35'0 0.0
2018-Jul-18 02:00N 29°14' W 094°35'0 0.0
2018-Jul-18 01:27N 29°14' W 094°35'0 0.0
2018-Jul-18 01:00N 29°14' W 094°35'0 0.0
2018-Jul-18 00:27N 29°14' W 094°35'0 0.0
2018-Jul-18 00:00N 29°14' W 094°35'0 0.0
2018-Jul-17 23:30N 29°14' W 094°35'0 0.0
2018-Jul-17 22:54N 29°14' W 094°35'0 0.0
2018-Jul-17 22:24N 29°14' W 094°35'0 0.0
2018-Jul-17 21:54N 29°14' W 094°35'0 0.1
2018-Jul-17 21:27N 29°14' W 094°35'2 4.1
2018-Jul-17 21:00N 29°16' W 094°36'510.3
2018-Jul-17 20:30N 29°20' W 094°40'713.0
2018-Jul-17 20:00N 29°21' W 094°47'612.7
2018-Jul-17 19:30N 29°27' W 094°50'612.2
2018-Jul-17 19:00N 29°32' W 094°54'611.9
2018-Jul-17 18:30N 29°37' W 094°57'510.7
2018-Jul-17 18:00N 29°42' W 094°60'4 8.3
2018-Jul-17 17:30N 29°45' W 095°04'3 5.7
2018-Jul-17 17:00N 29°44' W 095°07'3 6.8
2018-Jul-17 16:30N 29°45' W 095°11'3 5.7
2018-Jul-17 15:58N 29°43' W 095°14'2 0.5
2018-Jul-17 13:04N 29°44' W 095°16'0 0.0
2018-Jul-17 12:37N 29°44' W 095°16'0 0.0
2018-Jul-17 12:16N 29°44' W 095°16'0 0.0
2018-Jul-17 11:55N 29°44' W 095°16'0 0.0
2018-Jul-17 11:28N 29°44' W 095°16'0 0.0
2018-Jul-17 10:58N 29°44' W 095°16'0 0.0
2018-Jul-17 10:22N 29°44' W 095°16'0 0.0
2018-Jul-17 09:01N 29°44' W 095°16'0 0.0
2018-Jul-17 08:55N 29°44' W 095°16'0 0.0
2018-Jul-17 08:28N 29°44' W 095°16'0 0.0
2018-Jul-17 07:58N 29°44' W 095°16'0 0.0
2018-Jul-17 07:19N 29°44' W 095°16'0 0.0
2018-Jul-17 06:55N 29°44' W 095°16'0 0.0
2018-Jul-17 06:28N 29°44' W 095°16'0 0.0
2018-Jul-17 05:58N 29°44' W 095°16'0 0.0
2018-Jul-17 05:28N 29°44' W 095°16'0 0.0
2018-Jul-17 04:58N 29°44' W 095°16'0 0.0
2018-Jul-17 04:28N 29°44' W 095°16'0 0.0
2018-Jul-16 03:20N 29°44' W 095°16'1 0.1
2018-Jul-15 15:31N 29°44' W 095°16'0 1.4
2018-Jul-15 15:31N 29°44' W 095°16'3 4.9
2018-Jul-15 14:59N 29°44' W 095°13'3 4.7
2018-Jul-15 14:19N 29°45' W 095°10'2 5.3
2018-Jul-15 13:57N 29°44' W 095°08'2 0.1
2018-Jul-14 01:55N 29°45' W 095°06'2 3.8
2018-Jul-14 01:30N 29°46' W 095°05'4 7.5
2018-Jul-14 01:00N 29°43' W 095°01'4 8.4
2018-Jul-14 00:30N 29°40' W 094°59'611.2
2018-Jul-14 00:00N 29°35' W 094°56'611.5
2018-Jul-13 23:30N 29°30' W 094°52'611.8
2018-Jul-13 23:00N 29°25' W 094°49'611.3
2018-Jul-13 22:30N 29°21' W 094°45'612.5
2018-Jul-13 22:00N 29°19' W 094°38'5 5.9
2018-Jul-13 21:13N 29°14' W 094°38'1 2.4
2018-Jul-13 20:59N 29°14' W 094°39'0 0.1
2018-Jul-13 20:26N 29°14' W 094°39'0 0.0
2018-Jul-13 19:59N 29°14' W 094°39'0 0.0
2018-Jul-13 19:29N 29°14' W 094°39'0 0.0
2018-Jul-13 18:56N 29°14' W 094°39'0 0.0
2018-Jul-13 18:29N 29°14' W 094°39'0 0.0
2018-Jul-13 17:59N 29°14' W 094°39'0 0.0
2018-Jul-13 17:29N 29°14' W 094°39'0 0.0
2018-Jul-13 16:56N 29°14' W 094°39'0 0.0
2018-Jul-13 16:29N 29°14' W 094°39'0 0.0
2018-Jul-13 15:59N 29°14' W 094°39'0 0.0
2018-Jul-13 15:29N 29°14' W 094°39'0 0.0
2018-Jul-13 14:59N 29°14' W 094°39'0 0.0
2018-Jul-13 14:29N 29°14' W 094°39'0 0.0
2018-Jul-13 13:26N 29°14' W 094°39'0 0.0
2018-Jul-13 12:59N 29°14' W 094°39'0 0.0
2018-Jul-13 12:29N 29°14' W 094°39'0 0.1
2018-Jul-13 11:59N 29°14' W 094°39'0 0.2
2018-Jul-13 11:29N 29°14' W 094°39'  

Dump ship's entire track history